sensor_id;sensor_type;location;lat;lon;timestamp;pressure;altitude;pressure_sealevel;temperature;humidity
45793;BME280;31495;42.740;22.908;2024-03-07T00:00:28;92789.03;;;7.05;89.51
45793;BME280;31495;42.740;22.908;2024-03-07T00:01:28;92814.16;;;7.16;89.87
45793;BME280;31495;42.740;22.908;2024-03-07T00:02:27;92799.09;;;7.00;90.59
45793;BME280;31495;42.740;22.908;2024-03-07T00:03:27;92813.38;;;7.09;91.24
45793;BME280;31495;42.740;22.908;2024-03-07T00:04:27;92770.38;;;6.70;91.55
45793;BME280;31495;42.740;22.908;2024-03-07T00:05:27;92822.88;;;7.02;91.95
45793;BME280;31495;42.740;22.908;2024-03-07T00:06:27;92825.66;;;7.14;92.27
45793;BME280;31495;42.740;22.908;2024-03-07T00:07:27;92829.19;;;7.13;92.03
45793;BME280;31495;42.740;22.908;2024-03-07T00:08:26;92787.03;;;6.87;92.40
45793;BME280;31495;42.740;22.908;2024-03-07T00:09:27;92825.63;;;7.07;92.06
45793;BME280;31495;42.740;22.908;2024-03-07T00:10:27;92821.09;;;7.09;91.75
45793;BME280;31495;42.740;22.908;2024-03-07T00:11:29;92812.78;;;7.01;91.79
45793;BME280;31495;42.740;22.908;2024-03-07T00:12:29;92788.19;;;6.85;91.96
45793;BME280;31495;42.740;22.908;2024-03-07T00:13:29;92811.38;;;7.05;92.39
45793;BME280;31495;42.740;22.908;2024-03-07T00:14:28;92824.63;;;7.08;92.46
45793;BME280;31495;42.740;22.908;2024-03-07T00:15:28;92817.13;;;7.07;92.72
45793;BME280;31495;42.740;22.908;2024-03-07T00:16:29;92794.38;;;6.97;92.41
45793;BME280;31495;42.740;22.908;2024-03-07T00:17:28;92816.53;;;7.11;92.28
45793;BME280;31495;42.740;22.908;2024-03-07T00:18:29;92783.84;;;6.85;92.58
45793;BME280;31495;42.740;22.908;2024-03-07T00:19:29;92789.41;;;6.89;92.90
45793;BME280;31495;42.740;22.908;2024-03-07T00:20:29;92777.13;;;6.84;93.25
45793;BME280;31495;42.740;22.908;2024-03-07T00:21:28;92820.31;;;7.15;93.28
45793;BME280;31495;42.740;22.908;2024-03-07T00:22:28;92824.88;;;7.20;93.37
45793;BME280;31495;42.740;22.908;2024-03-07T00:23:29;92816.53;;;7.18;93.51
45793;BME280;31495;42.740;22.908;2024-03-07T00:24:31;92810.59;;;7.11;93.29
45793;BME280;31495;42.740;22.908;2024-03-07T00:25:30;92741.50;;;6.74;93.41
45793;BME280;31495;42.740;22.908;2024-03-07T00:26:30;92792.38;;;6.99;93.39
45793;BME280;31495;42.740;22.908;2024-03-07T00:27:30;92818.91;;;7.13;93.57
45793;BME280;31495;42.740;22.908;2024-03-07T00:28:29;92800.50;;;7.03;93.73
45793;BME280;31495;42.740;22.908;2024-03-07T00:29:32;92770.22;;;6.91;93.38
45793;BME280;31495;42.740;22.908;2024-03-07T00:30:34;92817.53;;;7.24;93.50
45793;BME280;31495;42.740;22.908;2024-03-07T00:31:34;92803.69;;;7.25;93.76
45793;BME280;31495;42.740;22.908;2024-03-07T00:32:33;92809.44;;;7.27;93.50
45793;BME280;31495;42.740;22.908;2024-03-07T00:33:35;92765.47;;;7.02;93.43
45793;BME280;31495;42.740;22.908;2024-03-07T00:34:36;92812.97;;;7.26;93.53
45793;BME280;31495;42.740;22.908;2024-03-07T00:35:35;92791.56;;;6.92;94.27
45793;BME280;31495;42.740;22.908;2024-03-07T00:36:35;92803.84;;;6.96;94.65
45793;BME280;31495;42.740;22.908;2024-03-07T00:37:34;92816.72;;;7.03;95.11
45793;BME280;31495;42.740;22.908;2024-03-07T00:38:34;92811.56;;;7.03;95.17
45793;BME280;31495;42.740;22.908;2024-03-07T00:39:34;92820.31;;;7.09;95.15
45793;BME280;31495;42.740;22.908;2024-03-07T00:40:33;92779.91;;;6.89;94.83
45793;BME280;31495;42.740;22.908;2024-03-07T00:41:33;92822.84;;;6.95;94.83
45793;BME280;31495;42.740;22.908;2024-03-07T00:42:32;92810.19;;;6.87;95.11
45793;BME280;31495;42.740;22.908;2024-03-07T00:43:31;92794.28;;;6.63;95.62
45793;BME280;31495;42.740;22.908;2024-03-07T00:44:31;92812.13;;;6.85;95.27
45793;BME280;31495;42.740;22.908;2024-03-07T00:45:30;92823.59;;;6.76;95.72
45793;BME280;31495;42.740;22.908;2024-03-07T00:46:31;92824.97;;;6.78;96.05
45793;BME280;31495;42.740;22.908;2024-03-07T00:47:31;92817.63;;;6.69;96.60
45793;BME280;31495;42.740;22.908;2024-03-07T00:48:32;92782.78;;;6.46;96.96
45793;BME280;31495;42.740;22.908;2024-03-07T00:49:31;92801.75;;;6.45;97.15
45793;BME280;31495;42.740;22.908;2024-03-07T00:50:31;92807.13;;;6.57;97.39
45793;BME280;31495;42.740;22.908;2024-03-07T00:51:31;92801.00;;;6.58;97.29
45793;BME280;31495;42.740;22.908;2024-03-07T00:52:31;92826.34;;;6.74;97.60
45793;BME280;31495;42.740;22.908;2024-03-07T00:53:32;92797.63;;;6.57;96.85
45793;BME280;31495;42.740;22.908;2024-03-07T00:54:31;92799.41;;;6.57;96.17
45793;BME280;31495;42.740;22.908;2024-03-07T00:55:31;92792.66;;;6.56;96.06
45793;BME280;31495;42.740;22.908;2024-03-07T00:56:30;92817.25;;;6.72;96.51
45793;BME280;31495;42.740;22.908;2024-03-07T00:57:31;92745.53;;;6.22;96.40
45793;BME280;31495;42.740;22.908;2024-03-07T00:58:31;92813.66;;;6.59;96.82
45793;BME280;31495;42.740;22.908;2024-03-07T00:59:31;92816.84;;;6.68;97.07
45793;BME280;31495;42.740;22.908;2024-03-07T01:00:31;92796.84;;;6.57;97.51
45793;BME280;31495;42.740;22.908;2024-03-07T01:01:32;92813.69;;;6.73;97.47
45793;BME280;31495;42.740;22.908;2024-03-07T01:02:33;92753.50;;;6.40;97.49
45793;BME280;31495;42.740;22.908;2024-03-07T01:03:33;92776.66;;;6.54;97.10
45793;BME280;31495;42.740;22.908;2024-03-07T01:04:32;92802.63;;;6.72;97.05
45793;BME280;31495;42.740;22.908;2024-03-07T01:05:32;92806.75;;;6.67;97.62
45793;BME280;31495;42.740;22.908;2024-03-07T01:06:32;92766.34;;;6.40;97.77
45793;BME280;31495;42.740;22.908;2024-03-07T01:07:32;92798.66;;;6.70;97.71
45793;BME280;31495;42.740;22.908;2024-03-07T01:08:32;92768.72;;;6.49;96.57
45793;BME280;31495;42.740;22.908;2024-03-07T01:09:32;92767.75;;;6.50;96.18
45793;BME280;31495;42.740;22.908;2024-03-07T01:10:32;92802.63;;;6.79;96.39
45793;BME280;31495;42.740;22.908;2024-03-07T01:11:32;92794.88;;;6.66;96.45
45793;BME280;31495;42.740;22.908;2024-03-07T01:12:32;92798.59;;;6.43;96.25
45793;BME280;31495;42.740;22.908;2024-03-07T01:13:33;92809.84;;;6.49;96.88
45793;BME280;31495;42.740;22.908;2024-03-07T01:14:32;92771.25;;;6.35;97.05
45793;BME280;31495;42.740;22.908;2024-03-07T01:15:33;92785.31;;;6.39;96.93
45793;BME280;31495;42.740;22.908;2024-03-07T01:16:33;92751.25;;;6.24;96.90
45793;BME280;31495;42.740;22.908;2024-03-07T01:17:33;92807.84;;;6.44;97.10
45793;BME280;31495;42.740;22.908;2024-03-07T01:18:32;92755.56;;;6.10;97.03
45793;BME280;31495;42.740;22.908;2024-03-07T01:19:33;92791.44;;;6.38;96.62
45793;BME280;31495;42.740;22.908;2024-03-07T01:20:33;92768.22;;;6.12;96.86
45793;BME280;31495;42.740;22.908;2024-03-07T01:21:33;92799.28;;;6.23;96.42
45793;BME280;31495;42.740;22.908;2024-03-07T01:22:33;92759.22;;;5.94;96.64
45793;BME280;31495;42.740;22.908;2024-03-07T01:23:33;92810.13;;;6.19;96.54
45793;BME280;31495;42.740;22.908;2024-03-07T01:24:33;92734.41;;;5.73;97.02
45793;BME280;31495;42.740;22.908;2024-03-07T01:25:33;92788.50;;;6.00;97.86
45793;BME280;31495;42.740;22.908;2024-03-07T01:26:33;92727.28;;;5.68;97.28
45793;BME280;31495;42.740;22.908;2024-03-07T01:27:33;92760.38;;;5.92;97.42
45793;BME280;31495;42.740;22.908;2024-03-07T01:28:33;92806.19;;;6.23;97.59
45793;BME280;31495;42.740;22.908;2024-03-07T01:29:33;92768.75;;;6.00;97.29
45793;BME280;31495;42.740;22.908;2024-03-07T01:30:33;92794.81;;;5.97;97.49
45793;BME280;31495;42.740;22.908;2024-03-07T01:31:34;92802.34;;;5.99;97.53
45793;BME280;31495;42.740;22.908;2024-03-07T01:32:34;92769.22;;;5.82;97.90
45793;BME280;31495;42.740;22.908;2024-03-07T01:33:34;92806.69;;;6.05;97.92
45793;BME280;31495;42.740;22.908;2024-03-07T01:34:34;92804.53;;;6.02;98.16
45793;BME280;31495;42.740;22.908;2024-03-07T01:35:33;92803.53;;;6.03;97.56
45793;BME280;31495;42.740;22.908;2024-03-07T01:36:34;92747.44;;;5.71;96.93
45793;BME280;31495;42.740;22.908;2024-03-07T01:37:34;92741.72;;;5.69;97.14
45793;BME280;31495;42.740;22.908;2024-03-07T01:38:35;92758.38;;;5.87;97.24
45793;BME280;31495;42.740;22.908;2024-03-07T01:39:35;92769.03;;;5.84;97.37
45793;BME280;31495;42.740;22.908;2024-03-07T01:40:34;92794.81;;;5.97;97.90
45793;BME280;31495;42.740;22.908;2024-03-07T01:41:34;92788.41;;;5.86;97.23
45793;BME280;31495;42.740;22.908;2024-03-07T01:42:35;92782.06;;;5.82;97.55
45793;BME280;31495;42.740;22.908;2024-03-07T01:43:35;92802.94;;;6.01;97.66
45793;BME280;31495;42.740;22.908;2024-03-07T01:44:35;92810.06;;;6.05;97.67
45793;BME280;31495;42.740;22.908;2024-03-07T01:45:35;92801.34;;;6.00;97.86
45793;BME280;31495;42.740;22.908;2024-03-07T01:46:36;92802.16;;;6.00;97.72
45793;BME280;31495;42.740;22.908;2024-03-07T01:47:36;92790.47;;;5.98;96.99
45793;BME280;31495;42.740;22.908;2024-03-07T01:48:37;92805.53;;;6.07;95.77
45793;BME280;31495;42.740;22.908;2024-03-07T01:49:37;92797.38;;;5.97;96.29
45793;BME280;31495;42.740;22.908;2024-03-07T01:50:38;92800.97;;;6.03;96.52
45793;BME280;31495;42.740;22.908;2024-03-07T01:51:38;92812.25;;;6.09;96.52
45793;BME280;31495;42.740;22.908;2024-03-07T01:52:40;92815.25;;;6.12;96.36
45793;BME280;31495;42.740;22.908;2024-03-07T01:53:40;92815.06;;;6.14;95.77
45793;BME280;31495;42.740;22.908;2024-03-07T01:54:40;92809.88;;;6.07;95.84
45793;BME280;31495;42.740;22.908;2024-03-07T01:55:39;92760.69;;;5.75;95.51
45793;BME280;31495;42.740;22.908;2024-03-07T01:56:39;92805.03;;;5.91;96.34
45793;BME280;31495;42.740;22.908;2024-03-07T01:57:39;92782.00;;;5.69;96.87
45793;BME280;31495;42.740;22.908;2024-03-07T01:58:38;92788.50;;;5.71;97.27
45793;BME280;31495;42.740;22.908;2024-03-07T01:59:39;92801.16;;;5.73;97.68
45793;BME280;31495;42.740;22.908;2024-03-07T02:00:39;92781.53;;;5.59;97.83
45793;BME280;31495;42.740;22.908;2024-03-07T02:01:38;92770.84;;;5.55;97.73
45793;BME280;31495;42.740;22.908;2024-03-07T02:02:39;92747.44;;;5.37;97.62
45793;BME280;31495;42.740;22.908;2024-03-07T02:03:39;92771.59;;;5.49;98.31
45793;BME280;31495;42.740;22.908;2024-03-07T02:04:38;92755.50;;;5.33;98.70
45793;BME280;31495;42.740;22.908;2024-03-07T02:05:39;92806.41;;;5.58;97.84
45793;BME280;31495;42.740;22.908;2024-03-07T02:06:39;92788.94;;;5.47;98.02
45793;BME280;31495;42.740;22.908;2024-03-07T02:07:39;92793.00;;;5.63;97.57
45793;BME280;31495;42.740;22.908;2024-03-07T02:08:38;92771.63;;;5.56;97.14
45793;BME280;31495;42.740;22.908;2024-03-07T02:09:38;92758.72;;;5.42;96.89
45793;BME280;31495;42.740;22.908;2024-03-07T02:10:37;92783.25;;;5.51;97.29
45793;BME280;31495;42.740;22.908;2024-03-07T02:11:37;92761.88;;;5.44;97.39
45793;BME280;31495;42.740;22.908;2024-03-07T02:12:37;92790.84;;;5.66;97.57
45793;BME280;31495;42.740;22.908;2024-03-07T02:13:37;92744.31;;;5.41;97.15
45793;BME280;31495;42.740;22.908;2024-03-07T02:14:37;92798.38;;;5.68;97.26
45793;BME280;31495;42.740;22.908;2024-03-07T02:15:37;92741.09;;;5.32;96.94
45793;BME280;31495;42.740;22.908;2024-03-07T02:16:37;92793.44;;;5.66;97.11
45793;BME280;31495;42.740;22.908;2024-03-07T02:17:38;92795.06;;;5.74;97.30
45793;BME280;31495;42.740;22.908;2024-03-07T02:18:38;92801.72;;;5.68;96.99
45793;BME280;31495;42.740;22.908;2024-03-07T02:19:38;92742.09;;;5.31;97.56
45793;BME280;31495;42.740;22.908;2024-03-07T02:20:44;92696.41;;;4.92;97.43
45793;BME280;31495;42.740;22.908;2024-03-07T02:21:46;92746.03;;;5.34;97.66
45793;BME280;31495;42.740;22.908;2024-03-07T02:22:45;92813.59;;;5.69;97.67
45793;BME280;31495;42.740;22.908;2024-03-07T02:23:45;92794.22;;;5.67;97.67
45793;BME280;31495;42.740;22.908;2024-03-07T02:24:45;92749.59;;;5.33;97.57
45793;BME280;31495;42.740;22.908;2024-03-07T02:25:44;92762.69;;;5.45;97.66
45793;BME280;31495;42.740;22.908;2024-03-07T02:26:44;92793.97;;;5.62;98.13
45793;BME280;31495;42.740;22.908;2024-03-07T02:27:43;92757.28;;;5.33;98.03
45793;BME280;31495;42.740;22.908;2024-03-07T02:28:44;92759.56;;;5.21;98.01
45793;BME280;31495;42.740;22.908;2024-03-07T02:29:44;92812.03;;;5.47;98.33
45793;BME280;31495;42.740;22.908;2024-03-07T02:30:43;92743.66;;;5.04;98.56
45793;BME280;31495;42.740;22.908;2024-03-07T02:31:44;92798.00;;;5.43;98.57
45793;BME280;31495;42.740;22.908;2024-03-07T02:32:46;92734.53;;;5.02;98.50
45793;BME280;31495;42.740;22.908;2024-03-07T02:33:50;92758.91;;;5.12;98.47
45793;BME280;31495;42.740;22.908;2024-03-07T02:34:52;92808.59;;;5.33;99.01
45793;BME280;31495;42.740;22.908;2024-03-07T02:35:51;92728.84;;;4.78;99.34
45793;BME280;31495;42.740;22.908;2024-03-07T02:36:51;92773.28;;;5.07;99.42
45793;BME280;31495;42.740;22.908;2024-03-07T02:37:51;92807.19;;;5.30;99.00
45793;BME280;31495;42.740;22.908;2024-03-07T02:38:51;92816.84;;;5.28;99.06
45793;BME280;31495;42.740;22.908;2024-03-07T02:39:50;92805.16;;;5.26;99.50
45793;BME280;31495;42.740;22.908;2024-03-07T02:40:50;92799.16;;;5.12;99.71
45793;BME280;31495;42.740;22.908;2024-03-07T02:41:49;92823.06;;;5.19;99.51
45793;BME280;31495;42.740;22.908;2024-03-07T02:42:49;92823.38;;;5.09;99.51
45793;BME280;31495;42.740;22.908;2024-03-07T02:43:49;92821.81;;;5.08;99.80
45793;BME280;31495;42.740;22.908;2024-03-07T02:44:48;92772.66;;;4.83;99.89
45793;BME280;31495;42.740;22.908;2024-03-07T02:45:48;92821.31;;;4.98;99.71
45793;BME280;31495;42.740;22.908;2024-03-07T02:46:49;92829.69;;;5.07;99.75
45793;BME280;31495;42.740;22.908;2024-03-07T02:47:48;92823.91;;;5.05;100.00
45793;BME280;31495;42.740;22.908;2024-03-07T02:48:48;92800.13;;;4.89;99.87
45793;BME280;31495;42.740;22.908;2024-03-07T02:49:47;92818.38;;;5.01;99.73
45793;BME280;31495;42.740;22.908;2024-03-07T02:50:47;92811.97;;;4.90;99.66
45793;BME280;31495;42.740;22.908;2024-03-07T02:51:47;92830.53;;;5.14;99.50
45793;BME280;31495;42.740;22.908;2024-03-07T02:52:46;92830.28;;;5.09;98.81
45793;BME280;31495;42.740;22.908;2024-03-07T02:53:46;92834.13;;;4.98;99.35
45793;BME280;31495;42.740;22.908;2024-03-07T02:54:45;92819.66;;;4.90;99.76
45793;BME280;31495;42.740;22.908;2024-03-07T02:55:45;92798.09;;;4.85;100.00
45793;BME280;31495;42.740;22.908;2024-03-07T02:56:44;92786.47;;;4.82;99.89
45793;BME280;31495;42.740;22.908;2024-03-07T02:57:44;92834.50;;;5.17;99.16
45793;BME280;31495;42.740;22.908;2024-03-07T02:58:44;92765.56;;;4.64;99.24
45793;BME280;31495;42.740;22.908;2024-03-07T02:59:44;92788.63;;;4.85;99.04
45793;BME280;31495;42.740;22.908;2024-03-07T03:00:43;92803.28;;;4.91;98.76
45793;BME280;31495;42.740;22.908;2024-03-07T03:01:43;92796.97;;;4.87;98.53
45793;BME280;31495;42.740;22.908;2024-03-07T03:02:42;92776.34;;;4.74;98.74
45793;BME280;31495;42.740;22.908;2024-03-07T03:03:41;92808.28;;;4.78;98.93
45793;BME280;31495;42.740;22.908;2024-03-07T03:04:42;92839.13;;;5.06;99.16
45793;BME280;31495;42.740;22.908;2024-03-07T03:05:42;92842.00;;;5.18;98.55
45793;BME280;31495;42.740;22.908;2024-03-07T03:06:42;92824.44;;;5.15;98.51
45793;BME280;31495;42.740;22.908;2024-03-07T03:07:42;92707.88;;;4.46;98.56
45793;BME280;31495;42.740;22.908;2024-03-07T03:08:43;92778.19;;;4.87;98.58
45793;BME280;31495;42.740;22.908;2024-03-07T03:09:43;92819.72;;;5.19;98.54
45793;BME280;31495;42.740;22.908;2024-03-07T03:10:43;92764.66;;;4.71;98.50
45793;BME280;31495;42.740;22.908;2024-03-07T03:11:44;92775.69;;;4.93;98.78
45793;BME280;31495;42.740;22.908;2024-03-07T03:12:44;92813.03;;;5.24;98.63
45793;BME280;31495;42.740;22.908;2024-03-07T03:13:43;92749.81;;;4.88;98.36
45793;BME280;31495;42.740;22.908;2024-03-07T03:14:46;92770.84;;;4.99;98.58
45793;BME280;31495;42.740;22.908;2024-03-07T03:15:45;92765.25;;;4.95;98.33
45793;BME280;31495;42.740;22.908;2024-03-07T03:16:46;92802.91;;;5.16;97.51
45793;BME280;31495;42.740;22.908;2024-03-07T03:17:46;92800.59;;;5.21;97.24
45793;BME280;31495;42.740;22.908;2024-03-07T03:18:46;92760.06;;;5.10;97.12
45793;BME280;31495;42.740;22.908;2024-03-07T03:19:47;92796.13;;;5.30;96.87
45793;BME280;31495;42.740;22.908;2024-03-07T03:20:52;92762.09;;;4.93;97.33
45793;BME280;31495;42.740;22.908;2024-03-07T03:21:52;92778.13;;;5.02;97.47
45793;BME280;31495;42.740;22.908;2024-03-07T03:22:52;92784.72;;;5.11;96.93
45793;BME280;31495;42.740;22.908;2024-03-07T03:23:52;92757.63;;;5.02;96.82
45793;BME280;31495;42.740;22.908;2024-03-07T03:24:54;92745.88;;;4.86;96.83
45793;BME280;31495;42.740;22.908;2024-03-07T03:25:54;92767.03;;;4.94;96.40
45793;BME280;31495;42.740;22.908;2024-03-07T03:26:54;92783.25;;;5.02;96.37
45793;BME280;31495;42.740;22.908;2024-03-07T03:27:54;92736.47;;;4.71;96.49
45793;BME280;31495;42.740;22.908;2024-03-07T03:28:53;92779.69;;;4.96;95.99
45793;BME280;31495;42.740;22.908;2024-03-07T03:29:53;92784.84;;;5.03;95.64
45793;BME280;31495;42.740;22.908;2024-03-07T03:30:52;92791.16;;;5.00;95.51
45793;BME280;31495;42.740;22.908;2024-03-07T03:31:52;92769.72;;;4.86;95.72
45793;BME280;31495;42.740;22.908;2024-03-07T03:32:51;92776.31;;;4.95;95.68
45793;BME280;31495;42.740;22.908;2024-03-07T03:33:51;92781.22;;;4.90;95.50
45793;BME280;31495;42.740;22.908;2024-03-07T03:34:51;92768.44;;;4.75;95.49
45793;BME280;31495;42.740;22.908;2024-03-07T03:35:52;92781.94;;;4.84;95.90
45793;BME280;31495;42.740;22.908;2024-03-07T03:36:51;92735.06;;;4.47;96.10
45793;BME280;31495;42.740;22.908;2024-03-07T03:37:50;92788.41;;;4.80;96.32
45793;BME280;31495;42.740;22.908;2024-03-07T03:38:50;92714.63;;;4.32;96.83
45793;BME280;31495;42.740;22.908;2024-03-07T03:39:50;92758.25;;;4.60;96.84
45793;BME280;31495;42.740;22.908;2024-03-07T03:40:50;92778.19;;;4.65;96.86
45793;BME280;31495;42.740;22.908;2024-03-07T03:41:49;92736.88;;;4.32;96.66
45793;BME280;31495;42.740;22.908;2024-03-07T03:42:49;92782.91;;;4.62;97.42
45793;BME280;31495;42.740;22.908;2024-03-07T03:43:48;92777.97;;;4.60;97.37
45793;BME280;31495;42.740;22.908;2024-03-07T03:44:48;92789.25;;;4.66;97.21
45793;BME280;31495;42.740;22.908;2024-03-07T03:45:48;92737.50;;;4.34;97.07
45793;BME280;31495;42.740;22.908;2024-03-07T03:46:48;92704.28;;;4.04;97.64
45793;BME280;31495;42.740;22.908;2024-03-07T03:47:48;92775.88;;;4.49;98.03
45793;BME280;31495;42.740;22.908;2024-03-07T03:48:47;92792.78;;;4.65;97.77
45793;BME280;31495;42.740;22.908;2024-03-07T03:49:47;92785.28;;;4.63;97.76
45793;BME280;31495;42.740;22.908;2024-03-07T03:50:46;92789.81;;;4.61;97.51
45793;BME280;31495;42.740;22.908;2024-03-07T03:51:46;92717.63;;;3.99;98.14
45793;BME280;31495;42.740;22.908;2024-03-07T03:52:46;92779.97;;;4.43;98.67
45793;BME280;31495;42.740;22.908;2024-03-07T03:53:46;92801.97;;;4.59;98.88
45793;BME280;31495;42.740;22.908;2024-03-07T03:54:46;92759.34;;;4.30;98.69
45793;BME280;31495;42.740;22.908;2024-03-07T03:55:46;92799.25;;;4.60;99.07
45793;BME280;31495;42.740;22.908;2024-03-07T03:56:46;92800.13;;;4.68;98.90
45793;BME280;31495;42.740;22.908;2024-03-07T03:57:46;92810.25;;;4.76;98.96
45793;BME280;31495;42.740;22.908;2024-03-07T03:58:46;92809.72;;;4.81;98.75
45793;BME280;31495;42.740;22.908;2024-03-07T03:59:46;92805.97;;;4.83;98.52
45793;BME280;31495;42.740;22.908;2024-03-07T04:00:46;92773.56;;;4.54;98.17
45793;BME280;31495;42.740;22.908;2024-03-07T04:01:46;92812.81;;;4.76;98.27
45793;BME280;31495;42.740;22.908;2024-03-07T04:02:47;92783.88;;;4.60;98.18
45793;BME280;31495;42.740;22.908;2024-03-07T04:03:47;92753.00;;;4.47;97.91
45793;BME280;31495;42.740;22.908;2024-03-07T04:04:47;92757.28;;;4.62;97.83
45793;BME280;31495;42.740;22.908;2024-03-07T04:05:47;92800.84;;;4.83;97.58
45793;BME280;31495;42.740;22.908;2024-03-07T04:06:50;92795.91;;;4.82;97.22
45793;BME280;31495;42.740;22.908;2024-03-07T04:07:49;92766.19;;;4.66;97.01
45793;BME280;31495;42.740;22.908;2024-03-07T04:08:49;92811.41;;;4.95;97.28
45793;BME280;31495;42.740;22.908;2024-03-07T04:09:48;92801.59;;;4.99;96.53
45793;BME280;31495;42.740;22.908;2024-03-07T04:10:48;92758.94;;;4.69;96.24
45793;BME280;31495;42.740;22.908;2024-03-07T04:11:48;92757.75;;;4.72;96.50
45793;BME280;31495;42.740;22.908;2024-03-07T04:12:47;92716.75;;;4.50;96.38
45793;BME280;31495;42.740;22.908;2024-03-07T04:13:47;92795.84;;;4.96;96.38
45793;BME280;31495;42.740;22.908;2024-03-07T04:14:48;92800.25;;;5.03;96.37
45793;BME280;31495;42.740;22.908;2024-03-07T04:15:48;92753.00;;;4.69;96.22
45793;BME280;31495;42.740;22.908;2024-03-07T04:16:48;92730.41;;;4.57;96.19
45793;BME280;31495;42.740;22.908;2024-03-07T04:17:48;92784.19;;;4.94;96.18
45793;BME280;31495;42.740;22.908;2024-03-07T04:18:48;92801.09;;;5.10;96.41
45793;BME280;31495;42.740;22.908;2024-03-07T04:19:48;92727.13;;;4.64;96.05
45793;BME280;31495;42.740;22.908;2024-03-07T04:20:48;92787.25;;;5.04;95.95
45793;BME280;31495;42.740;22.908;2024-03-07T04:21:48;92796.59;;;5.12;95.89
45793;BME280;31495;42.740;22.908;2024-03-07T04:22:48;92798.16;;;5.13;95.89
45793;BME280;31495;42.740;22.908;2024-03-07T04:23:48;92774.19;;;4.99;95.52
45793;BME280;31495;42.740;22.908;2024-03-07T04:24:48;92750.56;;;4.82;95.26
45793;BME280;31495;42.740;22.908;2024-03-07T04:25:53;92807.88;;;5.18;95.47
45793;BME280;31495;42.740;22.908;2024-03-07T04:26:53;92792.06;;;5.14;95.14
45793;BME280;31495;42.740;22.908;2024-03-07T04:27:53;92729.22;;;4.75;94.70
45793;BME280;31495;42.740;22.908;2024-03-07T04:28:52;92809.28;;;5.20;94.69
45793;BME280;31495;42.740;22.908;2024-03-07T04:29:52;92801.22;;;5.23;94.99
45793;BME280;31495;42.740;22.908;2024-03-07T04:30:51;92801.03;;;5.25;94.70
45793;BME280;31495;42.740;22.908;2024-03-07T04:31:52;92783.00;;;5.18;94.62
45793;BME280;31495;42.740;22.908;2024-03-07T04:32:52;92736.03;;;4.89;94.44
45793;BME280;31495;42.740;22.908;2024-03-07T04:33:51;92795.72;;;5.26;94.31
45793;BME280;31495;42.740;22.908;2024-03-07T04:34:51;92798.94;;;5.35;94.07
45793;BME280;31495;42.740;22.908;2024-03-07T04:35:50;92799.53;;;5.37;93.62
45793;BME280;31495;42.740;22.908;2024-03-07T04:36:51;92710.78;;;4.86;93.69
45793;BME280;31495;42.740;22.908;2024-03-07T04:37:51;92764.69;;;5.21;93.35
45793;BME280;31495;42.740;22.908;2024-03-07T04:38:52;92755.19;;;5.15;93.17
45793;BME280;31495;42.740;22.908;2024-03-07T04:39:51;92783.53;;;5.35;92.59
45793;BME280;31495;42.740;22.908;2024-03-07T04:40:51;92710.59;;;4.88;92.49
45793;BME280;31495;42.740;22.908;2024-03-07T04:41:51;92786.88;;;5.36;92.15
45793;BME280;31495;42.740;22.908;2024-03-07T04:42:52;92768.84;;;5.22;91.75
45793;BME280;31495;42.740;22.908;2024-03-07T04:43:51;92727.31;;;4.84;91.78
45793;BME280;31495;42.740;22.908;2024-03-07T04:44:51;92766.69;;;4.97;91.98
45793;BME280;31495;42.740;22.908;2024-03-07T04:45:51;92799.75;;;5.14;91.97
45793;BME280;31495;42.740;22.908;2024-03-07T04:46:51;92784.25;;;5.01;92.64
45793;BME280;31495;42.740;22.908;2024-03-07T04:47:54;92795.13;;;5.03;92.71
45793;BME280;31495;42.740;22.908;2024-03-07T04:48:54;92802.38;;;4.99;92.95
45793;BME280;31495;42.740;22.908;2024-03-07T04:49:53;92796.59;;;4.90;92.97
45793;BME280;31495;42.740;22.908;2024-03-07T04:50:53;92765.88;;;4.75;93.32
45793;BME280;31495;42.740;22.908;2024-03-07T04:51:57;92782.53;;;4.86;93.06
45793;BME280;31495;42.740;22.908;2024-03-07T04:52:57;92801.72;;;4.90;93.03
45793;BME280;31495;42.740;22.908;2024-03-07T04:53:56;92790.97;;;4.80;93.07
45793;BME280;31495;42.740;22.908;2024-03-07T04:54:56;92801.09;;;4.88;93.20
45793;BME280;31495;42.740;22.908;2024-03-07T04:55:55;92729.63;;;4.35;93.42
45793;BME280;31495;42.740;22.908;2024-03-07T04:56:55;92766.69;;;4.54;93.40
45793;BME280;31495;42.740;22.908;2024-03-07T04:57:55;92790.13;;;4.73;93.44
45793;BME280;31495;42.740;22.908;2024-03-07T04:58:54;92796.63;;;4.75;93.42
45793;BME280;31495;42.740;22.908;2024-03-07T04:59:53;92807.34;;;4.79;93.70
45793;BME280;31495;42.740;22.908;2024-03-07T05:00:53;92799.28;;;4.82;93.48
45793;BME280;31495;42.740;22.908;2024-03-07T05:01:52;92749.47;;;4.48;93.69
45793;BME280;31495;42.740;22.908;2024-03-07T05:02:52;92808.34;;;4.85;93.15
45793;BME280;31495;42.740;22.908;2024-03-07T05:03:53;92796.44;;;4.77;92.69
45793;BME280;31495;42.740;22.908;2024-03-07T05:04:52;92816.00;;;4.78;92.92
45793;BME280;31495;42.740;22.908;2024-03-07T05:05:52;92806.56;;;4.64;93.25
45793;BME280;31495;42.740;22.908;2024-03-07T05:06:54;92797.66;;;4.59;93.65
45793;BME280;31495;42.740;22.908;2024-03-07T05:07:54;92770.06;;;4.40;93.70
45793;BME280;31495;42.740;22.908;2024-03-07T05:08:55;92778.59;;;4.47;93.91
45793;BME280;31495;42.740;22.908;2024-03-07T05:09:55;92689.31;;;3.86;93.86
45793;BME280;31495;42.740;22.908;2024-03-07T05:10:54;92809.19;;;4.70;93.69
45793;BME280;31495;42.740;22.908;2024-03-07T05:11:54;92817.41;;;4.81;93.62
45793;BME280;31495;42.740;22.908;2024-03-07T05:12:54;92816.91;;;4.92;93.58
45793;BME280;31495;42.740;22.908;2024-03-07T05:13:53;92794.28;;;4.74;93.24
45793;BME280;31495;42.740;22.908;2024-03-07T05:14:53;92825.47;;;4.99;93.43
45793;BME280;31495;42.740;22.908;2024-03-07T05:15:53;92815.38;;;4.97;93.32
45793;BME280;31495;42.740;22.908;2024-03-07T05:16:53;92804.84;;;4.86;93.21
45793;BME280;31495;42.740;22.908;2024-03-07T05:18:05;92774.25;;;4.63;93.66